sensor_id;sensor_type;location;lat;lon;timestamp;P1;durP1;ratioP1;P2;durP2;ratioP2
15271;SDS011;7737;51.578;7.268;2024-03-02T00:00:29;2.10;;;1.90;;
15271;SDS011;7737;51.578;7.268;2024-03-02T00:02:56;2.70;;;1.80;;
15271;SDS011;7737;51.578;7.268;2024-03-02T00:05:23;3.63;;;2.17;;
15271;SDS011;7737;51.578;7.268;2024-03-02T00:07:52;2.38;;;1.83;;
15271;SDS011;7737;51.578;7.268;2024-03-02T00:10:21;4.18;;;1.75;;
15271;SDS011;7737;51.578;7.268;2024-03-02T00:12:50;2.15;;;1.95;;
15271;SDS011;7737;51.578;7.268;2024-03-02T00:15:24;2.38;;;2.15;;
15271;SDS011;7737;51.578;7.268;2024-03-02T00:18:06;2.63;;;1.95;;
15271;SDS011;7737;51.578;7.268;2024-03-02T00:20:35;2.08;;;1.92;;
15271;SDS011;7737;51.578;7.268;2024-03-02T00:23:02;2.58;;;1.83;;
15271;SDS011;7737;51.578;7.268;2024-03-02T00:25:38;2.95;;;1.77;;
15271;SDS011;7737;51.578;7.268;2024-03-02T00:28:10;2.08;;;1.75;;
15271;SDS011;7737;51.578;7.268;2024-03-02T00:30:51;3.20;;;1.90;;
15271;SDS011;7737;51.578;7.268;2024-03-02T00:33:21;1.63;;;1.45;;
15271;SDS011;7737;51.578;7.268;2024-03-02T00:35:49;2.63;;;1.67;;
15271;SDS011;7737;51.578;7.268;2024-03-02T00:38:16;1.85;;;1.70;;
15271;SDS011;7737;51.578;7.268;2024-03-02T00:40:43;2.75;;;1.63;;
15271;SDS011;7737;51.578;7.268;2024-03-02T00:43:15;3.33;;;1.92;;
15271;SDS011;7737;51.578;7.268;2024-03-02T00:46:06;3.08;;;1.88;;
15271;SDS011;7737;51.578;7.268;2024-03-02T00:48:33;2.05;;;1.50;;
15271;SDS011;7737;51.578;7.268;2024-03-02T00:51:02;2.40;;;1.77;;
15271;SDS011;7737;51.578;7.268;2024-03-02T00:53:29;2.10;;;1.85;;
15271;SDS011;7737;51.578;7.268;2024-03-02T00:55:58;1.70;;;1.60;;
15271;SDS011;7737;51.578;7.268;2024-03-02T00:58:24;1.80;;;1.58;;
15271;SDS011;7737;51.578;7.268;2024-03-02T01:00:51;3.00;;;1.70;;
15271;SDS011;7737;51.578;7.268;2024-03-02T01:03:17;1.60;;;1.48;;
15271;SDS011;7737;51.578;7.268;2024-03-02T01:05:44;1.92;;;1.70;;
15271;SDS011;7737;51.578;7.268;2024-03-02T01:08:12;2.05;;;1.70;;
15271;SDS011;7737;51.578;7.268;2024-03-02T01:10:39;2.60;;;1.80;;
15271;SDS011;7737;51.578;7.268;2024-03-02T01:13:06;1.90;;;1.70;;
15271;SDS011;7737;51.578;7.268;2024-03-02T01:15:33;1.70;;;1.60;;
15271;SDS011;7737;51.578;7.268;2024-03-02T01:17:59;2.28;;;1.55;;
15271;SDS011;7737;51.578;7.268;2024-03-02T01:20:26;1.67;;;1.50;;
15271;SDS011;7737;51.578;7.268;2024-03-02T01:22:53;1.83;;;1.50;;
15271;SDS011;7737;51.578;7.268;2024-03-02T01:25:21;1.60;;;1.50;;
15271;SDS011;7737;51.578;7.268;2024-03-02T01:27:48;2.83;;;1.55;;
15271;SDS011;7737;51.578;7.268;2024-03-02T01:30:14;1.85;;;1.25;;
15271;SDS011;7737;51.578;7.268;2024-03-02T01:32:41;2.08;;;1.65;;
15271;SDS011;7737;51.578;7.268;2024-03-02T01:35:08;1.90;;;1.70;;
15271;SDS011;7737;51.578;7.268;2024-03-02T01:37:34;1.95;;;1.60;;
15271;SDS011;7737;51.578;7.268;2024-03-02T01:40:01;2.35;;;1.20;;
15271;SDS011;7737;51.578;7.268;2024-03-02T01:42:35;1.98;;;1.17;;
15271;SDS011;7737;51.578;7.268;2024-03-02T01:45:02;3.13;;;1.70;;
15271;SDS011;7737;51.578;7.268;2024-03-02T01:47:30;3.22;;;2.00;;
15271;SDS011;7737;51.578;7.268;2024-03-02T01:49:57;1.75;;;1.50;;
15271;SDS011;7737;51.578;7.268;2024-03-02T01:52:24;2.55;;;1.70;;
15271;SDS011;7737;51.578;7.268;2024-03-02T01:54:50;2.58;;;1.48;;
15271;SDS011;7737;51.578;7.268;2024-03-02T01:57:17;2.25;;;1.55;;
15271;SDS011;7737;51.578;7.268;2024-03-02T01:59:45;2.28;;;1.58;;
15271;SDS011;7737;51.578;7.268;2024-03-02T02:02:13;3.20;;;1.73;;
15271;SDS011;7737;51.578;7.268;2024-03-02T02:04:40;4.00;;;1.48;;
15271;SDS011;7737;51.578;7.268;2024-03-02T02:07:06;2.50;;;1.42;;
15271;SDS011;7737;51.578;7.268;2024-03-02T02:09:33;1.92;;;1.35;;
15271;SDS011;7737;51.578;7.268;2024-03-02T02:11:59;2.08;;;1.55;;
15271;SDS011;7737;51.578;7.268;2024-03-02T02:14:26;1.63;;;1.50;;
15271;SDS011;7737;51.578;7.268;2024-03-02T02:16:54;2.08;;;1.40;;
15271;SDS011;7737;51.578;7.268;2024-03-02T02:19:20;3.00;;;1.45;;
15271;SDS011;7737;51.578;7.268;2024-03-02T02:21:48;2.67;;;1.50;;
15271;SDS011;7737;51.578;7.268;2024-03-02T02:24:14;2.70;;;1.45;;
15271;SDS011;7737;51.578;7.268;2024-03-02T02:26:41;2.65;;;1.55;;
15271;SDS011;7737;51.578;7.268;2024-03-02T02:29:07;2.85;;;1.30;;
15271;SDS011;7737;51.578;7.268;2024-03-02T02:31:37;3.15;;;1.73;;
15271;SDS011;7737;51.578;7.268;2024-03-02T02:34:04;2.85;;;1.65;;
15271;SDS011;7737;51.578;7.268;2024-03-02T02:36:31;2.75;;;1.83;;
15271;SDS011;7737;51.578;7.268;2024-03-02T02:38:59;3.10;;;1.63;;
15271;SDS011;7737;51.578;7.268;2024-03-02T02:41:28;2.90;;;1.85;;
15271;SDS011;7737;51.578;7.268;2024-03-02T02:43:54;3.20;;;1.60;;
15271;SDS011;7737;51.578;7.268;2024-03-02T02:46:21;2.75;;;1.70;;
15271;SDS011;7737;51.578;7.268;2024-03-02T02:48:48;3.72;;;1.90;;
15271;SDS011;7737;51.578;7.268;2024-03-02T02:51:16;3.08;;;1.63;;
15271;SDS011;7737;51.578;7.268;2024-03-02T02:53:43;3.28;;;1.83;;
15271;SDS011;7737;51.578;7.268;2024-03-02T02:56:10;2.83;;;1.50;;
15271;SDS011;7737;51.578;7.268;2024-03-02T02:58:37;2.13;;;1.40;;
15271;SDS011;7737;51.578;7.268;2024-03-02T03:01:03;2.35;;;1.40;;
15271;SDS011;7737;51.578;7.268;2024-03-02T03:03:30;2.60;;;1.38;;
15271;SDS011;7737;51.578;7.268;2024-03-02T03:05:56;2.40;;;1.30;;
15271;SDS011;7737;51.578;7.268;2024-03-02T03:08:22;1.65;;;1.17;;
15271;SDS011;7737;51.578;7.268;2024-03-02T03:10:49;1.58;;;1.13;;
15271;SDS011;7737;51.578;7.268;2024-03-02T03:13:17;2.40;;;1.40;;
15271;SDS011;7737;51.578;7.268;2024-03-02T03:15:43;2.17;;;1.50;;
15271;SDS011;7737;51.578;7.268;2024-03-02T03:18:10;1.30;;;1.20;;
15271;SDS011;7737;51.578;7.268;2024-03-02T03:20:36;1.25;;;1.10;;
15271;SDS011;7737;51.578;7.268;2024-03-02T03:23:03;1.50;;;1.10;;
15271;SDS011;7737;51.578;7.268;2024-03-02T03:25:30;1.95;;;1.08;;
15271;SDS011;7737;51.578;7.268;2024-03-02T03:27:56;1.27;;;1.08;;
15271;SDS011;7737;51.578;7.268;2024-03-02T03:30:24;1.98;;;1.05;;
15271;SDS011;7737;51.578;7.268;2024-03-02T03:32:50;1.85;;;1.13;;
15271;SDS011;7737;51.578;7.268;2024-03-02T03:35:17;1.85;;;1.08;;
15271;SDS011;7737;51.578;7.268;2024-03-02T03:37:44;1.65;;;1.10;;
15271;SDS011;7737;51.578;7.268;2024-03-02T03:40:10;1.75;;;1.10;;
15271;SDS011;7737;51.578;7.268;2024-03-02T03:42:39;2.13;;;1.20;;
15271;SDS011;7737;51.578;7.268;2024-03-02T03:45:06;1.42;;;1.02;;
15271;SDS011;7737;51.578;7.268;2024-03-02T03:47:34;1.60;;;1.00;;
15271;SDS011;7737;51.578;7.268;2024-03-02T03:50:01;1.98;;;1.23;;
15271;SDS011;7737;51.578;7.268;2024-03-02T03:52:31;1.60;;;0.98;;
15271;SDS011;7737;51.578;7.268;2024-03-02T03:54:58;2.45;;;1.25;;
15271;SDS011;7737;51.578;7.268;2024-03-02T03:57:24;2.22;;;1.10;;
15271;SDS011;7737;51.578;7.268;2024-03-02T03:59:51;2.13;;;1.10;;
15271;SDS011;7737;51.578;7.268;2024-03-02T04:02:18;1.45;;;0.90;;
15271;SDS011;7737;51.578;7.268;2024-03-02T04:04:45;2.67;;;1.20;;
15271;SDS011;7737;51.578;7.268;2024-03-02T04:07:12;1.88;;;1.00;;
15271;SDS011;7737;51.578;7.268;2024-03-02T04:09:38;2.05;;;1.00;;
15271;SDS011;7737;51.578;7.268;2024-03-02T04:12:05;2.08;;;1.20;;
15271;SDS011;7737;51.578;7.268;2024-03-02T04:14:32;1.05;;;0.80;;
15271;SDS011;7737;51.578;7.268;2024-03-02T04:16:58;2.22;;;1.08;;
15271;SDS011;7737;51.578;7.268;2024-03-02T04:19:25;1.25;;;1.00;;
15271;SDS011;7737;51.578;7.268;2024-03-02T04:21:53;1.45;;;0.77;;
15271;SDS011;7737;51.578;7.268;2024-03-02T04:24:19;2.13;;;1.00;;
15271;SDS011;7737;51.578;7.268;2024-03-02T04:26:46;1.35;;;1.00;;
15271;SDS011;7737;51.578;7.268;2024-03-02T04:29:12;1.75;;;0.95;;
15271;SDS011;7737;51.578;7.268;2024-03-02T04:31:39;2.17;;;1.10;;
15271;SDS011;7737;51.578;7.268;2024-03-02T04:34:05;1.52;;;0.93;;
15271;SDS011;7737;51.578;7.268;2024-03-02T04:36:32;3.35;;;0.82;;
15271;SDS011;7737;51.578;7.268;2024-03-02T04:38:59;2.13;;;1.30;;
15271;SDS011;7737;51.578;7.268;2024-03-02T04:41:26;1.20;;;1.00;;
15271;SDS011;7737;51.578;7.268;2024-03-02T04:43:53;2.03;;;1.00;;
15271;SDS011;7737;51.578;7.268;2024-03-02T04:46:19;1.42;;;0.98;;
15271;SDS011;7737;51.578;7.268;2024-03-02T04:48:46;1.27;;;0.93;;
15271;SDS011;7737;51.578;7.268;2024-03-02T04:51:13;2.75;;;1.13;;
15271;SDS011;7737;51.578;7.268;2024-03-02T04:53:40;2.50;;;1.08;;
15271;SDS011;7737;51.578;7.268;2024-03-02T04:56:08;1.42;;;0.80;;
15271;SDS011;7737;51.578;7.268;2024-03-02T04:59:04;1.60;;;0.70;;
15271;SDS011;7737;51.578;7.268;2024-03-02T05:01:31;2.20;;;1.00;;
15271;SDS011;7737;51.578;7.268;2024-03-02T05:03:58;1.52;;;0.80;;
15271;SDS011;7737;51.578;7.268;2024-03-02T05:06:24;1.50;;;1.10;;
15271;SDS011;7737;51.578;7.268;2024-03-02T05:08:51;1.75;;;1.10;;
15271;SDS011;7737;51.578;7.268;2024-03-02T05:11:18;2.45;;;1.38;;
15271;SDS011;7737;51.578;7.268;2024-03-02T05:14:18;1.85;;;1.10;;
15271;SDS011;7737;51.578;7.268;2024-03-02T05:16:44;3.20;;;1.25;;
15271;SDS011;7737;51.578;7.268;2024-03-02T05:19:10;0.95;;;0.82;;
15271;SDS011;7737;51.578;7.268;2024-03-02T05:21:37;2.03;;;1.00;;
15271;SDS011;7737;51.578;7.268;2024-03-02T05:24:04;1.50;;;0.90;;
15271;SDS011;7737;51.578;7.268;2024-03-02T05:26:32;1.73;;;0.93;;
15271;SDS011;7737;51.578;7.268;2024-03-02T05:28:58;3.40;;;1.10;;
15271;SDS011;7737;51.578;7.268;2024-03-02T05:31:25;2.20;;;1.10;;
15271;SDS011;7737;51.578;7.268;2024-03-02T05:33:51;2.40;;;1.15;;
15271;SDS011;7737;51.578;7.268;2024-03-02T05:36:18;1.30;;;1.05;;
15271;SDS011;7737;51.578;7.268;2024-03-02T05:38:45;1.58;;;0.80;;
15271;SDS011;7737;51.578;7.268;2024-03-02T05:41:12;1.73;;;1.10;;
15271;SDS011;7737;51.578;7.268;2024-03-02T05:43:40;3.45;;;1.33;;
15271;SDS011;7737;51.578;7.268;2024-03-02T05:46:06;2.97;;;1.33;;
15271;SDS011;7737;51.578;7.268;2024-03-02T05:48:33;3.30;;;1.35;;
15271;SDS011;7737;51.578;7.268;2024-03-02T05:50:59;1.90;;;1.30;;
15271;SDS011;7737;51.578;7.268;2024-03-02T05:53:26;2.45;;;1.40;;
15271;SDS011;7737;51.578;7.268;2024-03-02T05:55:53;2.08;;;1.30;;
15271;SDS011;7737;51.578;7.268;2024-03-02T05:58:21;2.67;;;1.40;;
15271;SDS011;7737;51.578;7.268;2024-03-02T06:00:59;1.70;;;1.20;;
15271;SDS011;7737;51.578;7.268;2024-03-02T06:03:31;1.90;;;1.30;;
15271;SDS011;7737;51.578;7.268;2024-03-02T06:05:58;2.72;;;1.48;;
15271;SDS011;7737;51.578;7.268;2024-03-02T06:08:24;2.25;;;1.50;;
15271;SDS011;7737;51.578;7.268;2024-03-02T06:10:52;2.63;;;1.70;;
15271;SDS011;7737;51.578;7.268;2024-03-02T06:13:19;2.25;;;1.63;;
15271;SDS011;7737;51.578;7.268;2024-03-02T06:15:45;2.67;;;1.60;;
15271;SDS011;7737;51.578;7.268;2024-03-02T06:18:13;2.35;;;1.42;;
15271;SDS011;7737;51.578;7.268;2024-03-02T06:20:40;3.05;;;1.73;;
15271;SDS011;7737;51.578;7.268;2024-03-02T06:23:06;2.40;;;1.60;;
15271;SDS011;7737;51.578;7.268;2024-03-02T06:25:33;1.92;;;1.73;;
15271;SDS011;7737;51.578;7.268;2024-03-02T06:27:59;1.70;;;1.48;;
15271;SDS011;7737;51.578;7.268;2024-03-02T06:30:25;2.00;;;1.77;;
15271;SDS011;7737;51.578;7.268;2024-03-02T06:32:52;2.70;;;2.00;;
15271;SDS011;7737;51.578;7.268;2024-03-02T06:35:20;2.33;;;1.70;;
15271;SDS011;7737;51.578;7.268;2024-03-02T06:37:47;3.05;;;2.10;;
15271;SDS011;7737;51.578;7.268;2024-03-02T06:40:13;2.92;;;1.83;;
15271;SDS011;7737;51.578;7.268;2024-03-02T06:42:40;3.00;;;2.08;;
15271;SDS011;7737;51.578;7.268;2024-03-02T06:45:06;2.53;;;1.83;;
15271;SDS011;7737;51.578;7.268;2024-03-02T06:47:33;2.20;;;2.00;;
15271;SDS011;7737;51.578;7.268;2024-03-02T06:49:59;3.20;;;2.10;;
15271;SDS011;7737;51.578;7.268;2024-03-02T06:52:27;2.90;;;2.00;;
15271;SDS011;7737;51.578;7.268;2024-03-02T06:54:54;2.13;;;1.80;;
15271;SDS011;7737;51.578;7.268;2024-03-02T06:57:20;2.80;;;2.25;;
15271;SDS011;7737;51.578;7.268;2024-03-02T06:59:47;2.25;;;1.90;;
15271;SDS011;7737;51.578;7.268;2024-03-02T07:02:15;4.20;;;1.73;;
15271;SDS011;7737;51.578;7.268;2024-03-02T07:04:41;2.60;;;1.98;;
15271;SDS011;7737;51.578;7.268;2024-03-02T07:07:08;3.22;;;1.77;;
15271;SDS011;7737;51.578;7.268;2024-03-02T07:09:36;2.28;;;2.08;;
15271;SDS011;7737;51.578;7.268;2024-03-02T07:12:03;3.33;;;2.05;;
15271;SDS011;7737;51.578;7.268;2024-03-02T07:14:29;2.53;;;1.85;;
15271;SDS011;7737;51.578;7.268;2024-03-02T07:17:10;2.80;;;2.13;;
15271;SDS011;7737;51.578;7.268;2024-03-02T07:19:37;2.70;;;1.90;;
15271;SDS011;7737;51.578;7.268;2024-03-02T07:22:05;3.60;;;1.73;;
15271;SDS011;7737;51.578;7.268;2024-03-02T07:24:33;2.67;;;2.03;;
15271;SDS011;7737;51.578;7.268;2024-03-02T07:27:07;3.83;;;2.38;;
15271;SDS011;7737;51.578;7.268;2024-03-02T07:29:33;3.35;;;2.17;;
15271;SDS011;7737;51.578;7.268;2024-03-02T07:32:00;2.38;;;1.90;;
15271;SDS011;7737;51.578;7.268;2024-03-02T07:34:26;2.85;;;2.00;;
15271;SDS011;7737;51.578;7.268;2024-03-02T07:36:53;2.80;;;2.08;;
15271;SDS011;7737;51.578;7.268;2024-03-02T07:39:20;2.97;;;2.10;;
15271;SDS011;7737;51.578;7.268;2024-03-02T07:41:47;3.88;;;1.92;;
15271;SDS011;7737;51.578;7.268;2024-03-02T07:44:14;3.08;;;2.20;;
15271;SDS011;7737;51.578;7.268;2024-03-02T07:46:41;2.67;;;2.10;;
15271;SDS011;7737;51.578;7.268;2024-03-02T07:49:08;3.55;;;2.00;;
15271;SDS011;7737;51.578;7.268;2024-03-02T07:51:35;3.20;;;2.33;;
15271;SDS011;7737;51.578;7.268;2024-03-02T07:54:02;2.70;;;2.15;;
15271;SDS011;7737;51.578;7.268;2024-03-02T07:56:29;2.28;;;2.03;;
15271;SDS011;7737;51.578;7.268;2024-03-02T08:02:19;3.97;;;2.00;;
15271;SDS011;7737;51.578;7.268;2024-03-02T08:04:45;3.28;;;2.40;;
15271;SDS011;7737;51.578;7.268;2024-03-02T08:07:12;2.67;;;2.20;;
15271;SDS011;7737;51.578;7.268;2024-03-02T08:09:39;3.58;;;1.90;;
15271;SDS011;7737;51.578;7.268;2024-03-02T08:12:06;3.10;;;2.35;;
15271;SDS011;7737;51.578;7.268;2024-03-02T08:14:33;2.97;;;2.00;;
15271;SDS011;7737;51.578;7.268;2024-03-02T08:17:00;2.95;;;1.80;;
15271;SDS011;7737;51.578;7.268;2024-03-02T08:19:29;3.58;;;2.00;;
15271;SDS011;7737;51.578;7.268;2024-03-02T08:21:55;3.25;;;2.00;;
15271;SDS011;7737;51.578;7.268;2024-03-02T08:24:22;3.05;;;1.90;;
15271;SDS011;7737;51.578;7.268;2024-03-02T08:26:48;3.17;;;2.10;;
15271;SDS011;7737;51.578;7.268;2024-03-02T08:29:15;2.30;;;1.80;;
15271;SDS011;7737;51.578;7.268;2024-03-02T08:31:41;2.67;;;1.75;;
15271;SDS011;7737;51.578;7.268;2024-03-02T08:34:08;4.63;;;2.15;;
15271;SDS011;7737;51.578;7.268;2024-03-02T08:36:36;3.63;;;1.90;;
15271;SDS011;7737;51.578;7.268;2024-03-02T08:39:03;2.25;;;1.60;;
15271;SDS011;7737;51.578;7.268;2024-03-02T08:41:40;3.20;;;1.90;;
15271;SDS011;7737;51.578;7.268;2024-03-02T08:44:07;2.17;;;1.73;;
15271;SDS011;7737;51.578;7.268;2024-03-02T08:46:33;2.20;;;1.70;;
15271;SDS011;7737;51.578;7.268;2024-03-02T08:49:00;2.90;;;1.70;;
15271;SDS011;7737;51.578;7.268;2024-03-02T08:51:26;3.10;;;1.58;;
15271;SDS011;7737;51.578;7.268;2024-03-02T08:53:54;2.20;;;1.30;;
15271;SDS011;7737;51.578;7.268;2024-03-02T08:56:21;3.33;;;1.75;;
15271;SDS011;7737;51.578;7.268;2024-03-02T08:58:48;3.00;;;1.85;;
15271;SDS011;7737;51.578;7.268;2024-03-02T09:01:15;3.78;;;2.75;;
15271;SDS011;7737;51.578;7.268;2024-03-02T09:03:44;4.22;;;2.35;;
15271;SDS011;7737;51.578;7.268;2024-03-02T09:06:11;2.65;;;1.55;;
15271;SDS011;7737;51.578;7.268;2024-03-02T09:08:37;3.58;;;1.25;;
15271;SDS011;7737;51.578;7.268;2024-03-02T09:11:05;1.83;;;1.30;;
15271;SDS011;7737;51.578;7.268;2024-03-02T09:13:33;1.92;;;1.08;;
15271;SDS011;7737;51.578;7.268;2024-03-02T09:16:00;3.40;;;1.70;;
15271;SDS011;7737;51.578;7.268;2024-03-02T09:18:28;1.60;;;1.25;;
15271;SDS011;7737;51.578;7.268;2024-03-02T09:20:54;2.47;;;1.38;;
15271;SDS011;7737;51.578;7.268;2024-03-02T09:23:21;2.53;;;1.00;;
15271;SDS011;7737;51.578;7.268;2024-03-02T09:25:47;2.08;;;1.38;;
15271;SDS011;7737;51.578;7.268;2024-03-02T09:28:16;2.13;;;1.30;;
15271;SDS011;7737;51.578;7.268;2024-03-02T09:30:43;2.65;;;1.58;;
15271;SDS011;7737;51.578;7.268;2024-03-02T09:33:10;2.00;;;1.80;;
15271;SDS011;7737;51.578;7.268;2024-03-02T09:35:36;4.60;;;2.42;;
15271;SDS011;7737;51.578;7.268;2024-03-02T09:38:03;2.65;;;1.48;;
15271;SDS011;7737;51.578;7.268;2024-03-02T09:40:30;2.97;;;1.95;;
15271;SDS011;7737;51.578;7.268;2024-03-02T09:42:56;2.65;;;1.40;;
15271;SDS011;7737;51.578;7.268;2024-03-02T09:45:25;2.17;;;1.20;;
15271;SDS011;7737;51.578;7.268;2024-03-02T09:47:52;2.92;;;1.83;;
15271;SDS011;7737;51.578;7.268;2024-03-02T09:50:18;2.22;;;1.10;;
15271;SDS011;7737;51.578;7.268;2024-03-02T09:52:46;1.80;;;1.30;;
15271;SDS011;7737;51.578;7.268;2024-03-02T09:55:14;2.15;;;1.38;;
15271;SDS011;7737;51.578;7.268;2024-03-02T09:57:42;2.90;;;1.52;;
15271;SDS011;7737;51.578;7.268;2024-03-02T10:00:09;3.08;;;1.10;;
15271;SDS011;7737;51.578;7.268;2024-03-02T10:02:41;1.88;;;1.13;;
15271;SDS011;7737;51.578;7.268;2024-03-02T10:05:07;3.38;;;1.20;;
15271;SDS011;7737;51.578;7.268;2024-03-02T10:07:34;4.20;;;2.25;;
15271;SDS011;7737;51.578;7.268;2024-03-02T10:10:11;3.83;;;2.45;;
15271;SDS011;7737;51.578;7.268;2024-03-02T10:12:39;2.10;;;1.30;;
15271;SDS011;7737;51.578;7.268;2024-03-02T10:15:06;3.50;;;1.95;;
15271;SDS011;7737;51.578;7.268;2024-03-02T10:17:34;4.10;;;2.83;;
15271;SDS011;7737;51.578;7.268;2024-03-02T10:20:06;3.40;;;1.85;;
15271;SDS011;7737;51.578;7.268;2024-03-02T10:22:48;2.53;;;1.23;;
15271;SDS011;7737;51.578;7.268;2024-03-02T10:25:27;3.00;;;1.40;;
15271;SDS011;7737;51.578;7.268;2024-03-02T10:27:56;3.15;;;1.80;;
15271;SDS011;7737;51.578;7.268;2024-03-02T10:30:23;3.00;;;2.10;;
15271;SDS011;7737;51.578;7.268;2024-03-02T10:32:50;3.35;;;2.13;;
15271;SDS011;7737;51.578;7.268;2024-03-02T10:35:18;2.13;;;1.00;;
15271;SDS011;7737;51.578;7.268;2024-03-02T10:37:47;2.25;;;1.45;;
15271;SDS011;7737;51.578;7.268;2024-03-02T10:40:13;2.22;;;1.40;;
15271;SDS011;7737;51.578;7.268;2024-03-02T10:42:41;2.83;;;1.50;;
15271;SDS011;7737;51.578;7.268;2024-03-02T10:45:08;1.35;;;0.90;;
15271;SDS011;7737;51.578;7.268;2024-03-02T10:47:36;1.95;;;1.30;;
15271;SDS011;7737;51.578;7.268;2024-03-02T10:50:04;2.17;;;1.00;;
15271;SDS011;7737;51.578;7.268;2024-03-02T10:52:34;1.65;;;0.90;;
15271;SDS011;7737;51.578;7.268;2024-03-02T10:55:01;2.47;;;0.88;;
15271;SDS011;7737;51.578;7.268;2024-03-02T10:57:31;2.22;;;1.30;;
15271;SDS011;7737;51.578;7.268;2024-03-02T11:00:02;2.05;;;1.00;;
15271;SDS011;7737;51.578;7.268;2024-03-02T11:02:32;1.83;;;1.20;;
15271;SDS011;7737;51.578;7.268;2024-03-02T11:05:04;1.70;;;0.85;;
15271;SDS011;7737;51.578;7.268;2024-03-02T11:07:35;2.30;;;1.20;;
15271;SDS011;7737;51.578;7.268;2024-03-02T11:10:03;1.45;;;1.02;;
15271;SDS011;7737;51.578;7.268;2024-03-02T11:12:35;4.50;;;2.92;;
15271;SDS011;7737;51.578;7.268;2024-03-02T11:15:05;1.35;;;1.00;;
15271;SDS011;7737;51.578;7.268;2024-03-02T11:17:35;1.77;;;1.00;;
15271;SDS011;7737;51.578;7.268;2024-03-02T11:20:04;1.60;;;1.10;;
15271;SDS011;7737;51.578;7.268;2024-03-02T11:22:36;3.60;;;1.38;;
15271;SDS011;7737;51.578;7.268;2024-03-02T11:25:03;1.45;;;0.90;;
15271;SDS011;7737;51.578;7.268;2024-03-02T11:33:24;1.17;;;0.80;;
15271;SDS011;7737;51.578;7.268;2024-03-02T11:35:52;2.33;;;0.90;;
15271;SDS011;7737;51.578;7.268;2024-03-02T11:38:20;1.98;;;0.90;;
15271;SDS011;7737;51.578;7.268;2024-03-02T11:40:47;1.48;;;0.90;;
15271;SDS011;7737;51.578;7.268;2024-03-02T11:43:13;1.33;;;1.00;;
15271;SDS011;7737;51.578;7.268;2024-03-02T11:45:41;1.50;;;0.80;;
15271;SDS011;7737;51.578;7.268;2024-03-02T11:48:10;2.40;;;0.90;;
15271;SDS011;7737;51.578;7.268;2024-03-02T11:50:40;2.15;;;0.80;;
15271;SDS011;7737;51.578;7.268;2024-03-02T11:53:09;2.92;;;0.90;;
15271;SDS011;7737;51.578;7.268;2024-03-02T11:55:39;2.95;;;2.10;;
15271;SDS011;7737;51.578;7.268;2024-03-02T11:58:06;1.95;;;1.05;;
15271;SDS011;7737;51.578;7.268;2024-03-02T12:00:33;0.70;;;0.70;;
15271;SDS011;7737;51.578;7.268;2024-03-02T12:03:00;0.82;;;0.60;;
15271;SDS011;7737;51.578;7.268;2024-03-02T12:05:28;1.40;;;0.75;;
15271;SDS011;7737;51.578;7.268;2024-03-02T12:07:56;1.67;;;1.25;;
15271;SDS011;7737;51.578;7.268;2024-03-02T12:10:23;2.05;;;1.20;;
15271;SDS011;7737;51.578;7.268;2024-03-02T12:12:56;1.98;;;0.95;;
15271;SDS011;7737;51.578;7.268;2024-03-02T12:15:23;1.30;;;0.90;;
15271;SDS011;7737;51.578;7.268;2024-03-02T12:17:52;1.67;;;1.00;;
15271;SDS011;7737;51.578;7.268;2024-03-02T12:20:20;1.27;;;0.60;;
15271;SDS011;7737;51.578;7.268;2024-03-02T12:22:48;1.35;;;0.77;;
15271;SDS011;7737;51.578;7.268;2024-03-02T12:25:15;1.23;;;0.90;;
15271;SDS011;7737;51.578;7.268;2024-03-02T12:27:42;1.70;;;1.00;;
15271;SDS011;7737;51.578;7.268;2024-03-02T12:30:11;2.13;;;0.80;;
15271;SDS011;7737;51.578;7.268;2024-03-02T12:32:39;2.47;;;0.70;;
15271;SDS011;7737;51.578;7.268;2024-03-02T12:35:06;1.08;;;0.70;;
15271;SDS011;7737;51.578;7.268;2024-03-02T12:37:37;3.10;;;0.93;;
15271;SDS011;7737;51.578;7.268;2024-03-02T12:40:09;7.75;;;1.77;;
15271;SDS011;7737;51.578;7.268;2024-03-02T12:42:36;1.90;;;1.00;;
15271;SDS011;7737;51.578;7.268;2024-03-02T12:45:03;1.48;;;0.95;;
15271;SDS011;7737;51.578;7.268;2024-03-02T12:47:31;1.02;;;0.70;;
15271;SDS011;7737;51.578;7.268;2024-03-02T12:49:58;1.88;;;0.90;;
15271;SDS011;7737;51.578;7.268;2024-03-02T12:52:25;1.20;;;0.80;;
15271;SDS011;7737;51.578;7.268;2024-03-02T12:54:52;1.35;;;0.60;;
15271;SDS011;7737;51.578;7.268;2024-03-02T12:57:24;1.10;;;0.90;;
15271;SDS011;7737;51.578;7.268;2024-03-02T12:59:52;1.00;;;0.80;;
15271;SDS011;7737;51.578;7.268;2024-03-02T13:02:18;1.50;;;0.93;;
15271;SDS011;7737;51.578;7.268;2024-03-02T13:04:53;0.88;;;0.80;;
15271;SDS011;7737;51.578;7.268;2024-03-02T13:07:20;1.15;;;0.90;;
15271;SDS011;7737;51.578;7.268;2024-03-02T13:09:47;0.80;;;0.63;;
15271;SDS011;7737;51.578;7.268;2024-03-02T13:12:14;0.75;;;0.40;;
15271;SDS011;7737;51.578;7.268;2024-03-02T13:14:41;1.33;;;1.00;;
15271;SDS011;7737;51.578;7.268;2024-03-02T13:17:07;1.60;;;0.60;;
15271;SDS011;7737;51.578;7.268;2024-03-02T13:19:34;1.48;;;0.70;;
15271;SDS011;7737;51.578;7.268;2024-03-02T13:22:02;0.85;;;0.63;;
15271;SDS011;7737;51.578;7.268;2024-03-02T13:24:29;1.48;;;0.80;;
15271;SDS011;7737;51.578;7.268;2024-03-02T13:26:56;2.20;;;1.52;;
15271;SDS011;7737;51.578;7.268;2024-03-02T13:29:23;1.60;;;1.40;;
15271;SDS011;7737;51.578;7.268;2024-03-02T13:31:50;0.85;;;0.75;;
15271;SDS011;7737;51.578;7.268;2024-03-02T13:34:16;1.58;;;0.85;;
15271;SDS011;7737;51.578;7.268;2024-03-02T13:36:43;0.90;;;0.80;;
15271;SDS011;7737;51.578;7.268;2024-03-02T13:39:11;1.23;;;0.70;;
15271;SDS011;7737;51.578;7.268;2024-03-02T13:41:40;1.75;;;0.70;;
15271;SDS011;7737;51.578;7.268;2024-03-02T13:44:07;1.77;;;0.80;;
15271;SDS011;7737;51.578;7.268;2024-03-02T13:46:33;0.73;;;0.50;;
15271;SDS011;7737;51.578;7.268;2024-03-02T13:49:00;0.75;;;0.70;;
15271;SDS011;7737;51.578;7.268;2024-03-02T13:51:26;1.48;;;0.85;;
15271;SDS011;7737;51.578;7.268;2024-03-02T13:53:53;0.80;;;0.40;;
15271;SDS011;7737;51.578;7.268;2024-03-02T13:56:20;0.68;;;0.60;;
15271;SDS011;7737;51.578;7.268;2024-03-02T13:58:47;1.15;;;0.85;;
15271;SDS011;7737;51.578;7.268;2024-03-02T14:01:14;0.70;;;0.43;;
15271;SDS011;7737;51.578;7.268;2024-03-02T14:03:41;2.17;;;0.60;;
15271;SDS011;7737;51.578;7.268;2024-03-02T14:06:07;0.98;;;0.47;;
15271;SDS011;7737;51.578;7.268;2024-03-02T14:08:34;0.40;;;0.30;;
15271;SDS011;7737;51.578;7.268;2024-03-02T14:11:01;0.30;;;0.30;;
15271;SDS011;7737;51.578;7.268;2024-03-02T14:13:29;1.08;;;0.50;;
15271;SDS011;7737;51.578;7.268;2024-03-02T14:15:55;1.20;;;1.10;;
15271;SDS011;7737;51.578;7.268;2024-03-02T14:18:23;0.90;;;0.50;;
15271;SDS011;7737;51.578;7.268;2024-03-02T14:20:49;0.50;;;0.45;;
15271;SDS011;7737;51.578;7.268;2024-03-02T14:23:17;2.00;;;0.50;;
15271;SDS011;7737;51.578;7.268;2024-03-02T14:25:44;1.50;;;0.50;;
15271;SDS011;7737;51.578;7.268;2024-03-02T14:28:11;0.57;;;0.40;;
15271;SDS011;7737;51.578;7.268;2024-03-02T14:30:39;1.50;;;0.65;;
15271;SDS011;7737;51.578;7.268;2024-03-02T14:33:06;1.30;;;0.52;;
15271;SDS011;7737;51.578;7.268;2024-03-02T14:35:32;1.30;;;0.52;;
15271;SDS011;7737;51.578;7.268;2024-03-02T14:37:59;0.50;;;0.40;;
15271;SDS011;7737;51.578;7.268;2024-03-02T14:40:25;0.32;;;0.30;;
15271;SDS011;7737;51.578;7.268;2024-03-02T14:42:54;1.30;;;0.50;;
15271;SDS011;7737;51.578;7.268;2024-03-02T14:45:20;0.52;;;0.50;;
15271;SDS011;7737;51.578;7.268;2024-03-02T14:47:50;1.10;;;0.52;;
15271;SDS011;7737;51.578;7.268;2024-03-02T14:50:18;0.80;;;0.65;;
15271;SDS011;7737;51.578;7.268;2024-03-02T14:52:45;1.60;;;1.50;;
15271;SDS011;7737;51.578;7.268;2024-03-02T14:55:11;0.90;;;0.70;;
15271;SDS011;7737;51.578;7.268;2024-03-02T14:57:38;1.00;;;0.65;;
15271;SDS011;7737;51.578;7.268;2024-03-02T15:00:05;0.80;;;0.60;;
15271;SDS011;7737;51.578;7.268;2024-03-02T15:02:33;0.80;;;0.60;;
15271;SDS011;7737;51.578;7.268;2024-03-02T15:05:01;0.80;;;0.60;;
15271;SDS011;7737;51.578;7.268;2024-03-02T15:07:28;1.45;;;0.80;;
15271;SDS011;7737;51.578;7.268;2024-03-02T15:09:55;1.60;;;1.00;;
15271;SDS011;7737;51.578;7.268;2024-03-02T15:12:21;1.52;;;0.75;;